Time;durP1;ratioP1;P1;durP2;ratioP2;P2;SDS_P1;SDS_P2;PMS_P1;PMS_P2;Temp;Humidity;BMP_temperature;BMP_pressure;BME280_temperature;BME280_humidity;BME280_pressure;Samples;Min_cycle;Max_cycle;Signal;HPM_P1;HPM_P2
2023/05/09 00:01:52;;;;;;;44.70;22.38;;;;;;;14.69;100.00;101695.44;5089656;28;20067;-72
2023/05/09 00:04:18;;;;;;;50.67;26.00;;;;;;;14.71;100.00;101694.41;5049386;28;1157508;-72
2023/05/09 00:06:44;;;;;;;48.75;25.88;;;;;;;14.67;100.00;101685.91;5090995;28;20184;-71
2023/05/09 00:09:10;;;;;;;42.40;25.38;;;;;;;14.69;100.00;101691.91;5090896;28;20403;-71
2023/05/09 00:11:35;;;;;;;43.55;24.90;;;;;;;14.72;100.00;101686.13;5090813;28;20121;-72
2023/05/09 00:14:02;;;;;;;46.63;23.10;;;;;;;14.73;100.00;101682.44;5090701;28;20071;-71
2023/05/09 00:16:27;;;;;;;42.17;24.23;;;;;;;14.73;100.00;101678.94;5090652;28;20028;-72
2023/05/09 00:18:53;;;;;;;41.00;22.15;;;;;;;14.74;100.00;101680.56;5089963;28;20172;-71
2023/05/09 00:21:18;;;;;;;39.85;24.23;;;;;;;14.77;100.00;101675.63;5090763;28;20540;-72
2023/05/09 00:23:46;;;;;;;40.95;20.98;;;;;;;14.74;100.00;101673.34;5090746;28;20035;-72
2023/05/09 00:26:12;;;;;;;44.95;23.95;;;;;;;14.77;100.00;101680.16;5090601;28;20105;-71
2023/05/09 00:28:37;;;;;;;43.53;23.98;;;;;;;14.67;100.00;101664.44;5090620;28;20425;-71
2023/05/09 00:31:03;;;;;;;39.35;22.13;;;;;;;14.73;100.00;101670.88;5090386;28;20024;-71
2023/05/09 00:33:28;;;;;;;35.90;21.55;;;;;;;14.66;100.00;101663.63;5090408;28;20500;-72
2023/05/09 00:35:54;;;;;;;38.17;21.50;;;;;;;14.68;100.00;101671.47;5090514;28;20076;-71
2023/05/09 00:38:22;;;;;;;39.25;20.48;;;;;;;14.62;100.00;101661.56;5090265;28;20110;-71
2023/05/09 00:40:48;;;;;;;33.35;17.27;;;;;;;14.65;100.00;101664.66;5090189;28;20467;-71
2023/05/09 00:43:13;;;;;;;38.80;20.77;;;;;;;14.63;100.00;101657.84;5090096;28;20064;-72
2023/05/09 00:45:38;;;;;;;33.55;18.42;;;;;;;14.67;100.00;101651.00;5089892;28;20040;-72
2023/05/09 00:48:04;;;;;;;35.45;18.73;;;;;;;14.60;100.00;101634.91;5089985;28;20032;-71
2023/05/09 00:50:30;;;;;;;34.45;20.23;;;;;;;14.61;100.00;101639.25;5088867;28;20123;-71
2023/05/09 00:52:56;;;;;;;33.33;19.75;;;;;;;14.59;100.00;101632.41;5090045;28;20028;-71
2023/05/09 00:55:22;;;;;;;34.80;19.38;;;;;;;14.58;100.00;101636.97;5090130;28;20031;-71
2023/05/09 00:57:47;;;;;;;32.90;18.00;;;;;;;14.61;100.00;101641.09;5089946;28;20523;-71
2023/05/09 01:00:13;;;;;;;31.95;17.52;;;;;;;14.60;100.00;101632.22;5089837;28;20051;-71
2023/05/09 01:02:45;;;;;;;32.42;17.25;;;;;;;14.58;100.00;101631.59;5089912;28;20032;-71
2023/05/09 01:05:11;;;;;;;36.25;19.80;;;;;;;14.52;100.00;101628.88;5089732;28;20048;-71
2023/05/09 01:07:40;;;;;;;36.33;19.27;;;;;;;14.54;100.00;101632.19;5088733;28;20040;-72
2023/05/09 01:10:25;;;;;;;33.70;17.05;;;;;;;14.54;100.00;101625.00;5089599;28;20024;-71
2023/05/09 01:12:57;;;;;;;31.13;17.05;;;;;;;14.53;100.00;101623.31;5089691;28;20430;-71
2023/05/09 01:15:28;;;;;;;32.20;18.90;;;;;;;14.51;100.00;101624.53;5089658;28;20489;-71
2023/05/09 01:18:23;;;;;;;34.65;18.02;;;;;;;14.52;100.00;101612.78;5089567;28;20120;-71
2023/05/09 01:20:54;;;;;;;34.15;17.20;;;;;;;14.49;100.00;101608.66;5085512;28;20562;-71
2023/05/09 01:23:34;;;;;;;31.20;16.92;;;;;;;14.51;100.00;101611.09;5089551;28;20024;-71
2023/05/09 01:26:19;;;;;;;30.13;16.73;;;;;;;14.45;100.00;101597.47;5090302;28;20879;-78
2023/05/09 01:29:12;;;;;;;28.70;13.98;;;;;;;14.47;100.00;101600.78;5090688;28;20113;-78
2023/05/09 01:31:40;;;;;;;27.50;15.20;;;;;;;14.43;100.00;101588.78;5090001;28;20063;-78
2023/05/09 01:34:08;;;;;;;33.42;17.15;;;;;;;14.41;100.00;101588.19;5090424;28;20024;-78
2023/05/09 01:36:37;;;;;;;27.73;15.18;;;;;;;14.43;100.00;101579.91;5090616;28;20031;-78
2023/05/09 01:39:04;;;;;;;26.67;12.75;;;;;;;14.43;100.00;101579.91;5089918;28;20042;-78
2023/05/09 01:41:33;;;;;;;31.90;14.18;;;;;;;14.40;100.00;101586.50;5090463;28;20032;-78
2023/05/09 01:44:02;;;;;;;28.08;15.35;;;;;;;14.40;100.00;101583.00;5090477;28;20060;-78
2023/05/09 01:46:28;;;;;;;26.38;14.77;;;;;;;14.27;100.00;101569.56;5090136;28;20031;-78
2023/05/09 01:48:55;;;;;;;27.73;15.70;;;;;;;14.35;100.00;101586.31;5090343;28;20027;-78
2023/05/09 01:51:20;;;;;;;26.52;14.65;;;;;;;14.28;100.00;101577.44;5090259;28;20147;-78
2023/05/09 01:53:47;;;;;;;28.48;15.18;;;;;;;14.32;100.00;101575.16;5088991;28;20475;-78
2023/05/09 01:56:14;;;;;;;29.25;15.85;;;;;;;14.30;100.00;101577.22;5090227;28;20036;-78
2023/05/09 01:58:41;;;;;;;29.38;15.63;;;;;;;14.28;100.00;101568.53;5090184;28;20036;-78
2023/05/09 02:01:07;;;;;;;30.27;14.07;;;;;;;14.20;100.00;101562.34;5090192;28;20039;-78
2023/05/09 02:03:33;;;;;;;25.63;14.88;;;;;;;14.21;100.00;101564.00;5090221;28;20030;-78
2023/05/09 02:06:01;;;;;;;27.25;14.70;;;;;;;14.21;100.00;101571.22;5090147;28;20044;-78
2023/05/09 02:08:26;;;;;;;31.90;17.10;;;;;;;14.16;100.00;101569.13;5090224;28;20024;-78
2023/05/09 02:10:52;;;;;;;28.70;15.60;;;;;;;14.16;100.00;101569.13;5090247;28;20028;-78
2023/05/09 02:13:17;;;;;;;28.75;15.65;;;;;;;14.13;100.00;101568.72;5090120;28;20031;-77
2023/05/09 02:15:44;;;;;;;26.10;16.08;;;;;;;14.10;100.00;101559.22;5090266;28;20425;-78
2023/05/09 02:18:09;;;;;;;26.63;15.38;;;;;;;14.13;100.00;101574.09;5090055;28;20072;-78
2023/05/09 02:20:35;;;;;;;29.58;15.15;;;;;;;14.10;100.00;101559.22;5088700;28;20444;-78
2023/05/09 02:23:00;;;;;;;29.05;16.70;;;;;;;14.08;100.00;101555.91;5088785;28;20035;-78
2023/05/09 02:25:26;;;;;;;28.73;16.23;;;;;;;14.08;100.00;101555.91;5090003;28;20028;-78
2023/05/09 02:27:55;;;;;;;26.80;13.52;;;;;;;14.07;100.00;101565.00;5090273;28;20039;-78
2023/05/09 02:30:26;;;;;;;31.60;14.65;;;;;;;14.00;100.00;101550.72;5090200;28;20024;-78
2023/05/09 02:33:03;;;;;;;27.57;17.17;;;;;;;14.00;100.00;101553.41;5090280;28;20032;-78
2023/05/09 02:35:29;;;;;;;27.58;15.05;;;;;;;13.98;100.00;101553.59;5089954;28;20032;-78
2023/05/09 02:37:57;;;;;;;28.25;16.17;;;;;;;13.91;100.00;101547.41;5089785;28;20078;-71
2023/05/09 02:40:25;;;;;;;29.45;15.98;;;;;;;13.97;100.00;101553.81;5088722;28;20610;-72
2023/05/09 02:42:50;;;;;;;29.52;15.05;;;;;;;13.91;100.00;101550.09;5091604;28;20109;-72
2023/05/09 02:45:16;;;;;;;32.15;16.10;;;;;;;13.93;100.00;101556.06;5091270;28;20070;-72
2023/05/09 02:47:41;;;;;;;33.80;17.33;;;;;;;13.94;100.00;101564.97;5092448;28;20039;-72
2023/05/09 02:50:07;;;;;;;33.17;18.85;;;;;;;13.94;100.00;101559.59;5092442;28;20024;-72
2023/05/09 02:52:32;;;;;;;31.52;17.13;;;;;;;13.95;100.00;101559.38;5092293;28;20544;-71
2023/05/09 02:54:58;;;;;;;30.25;15.60;;;;;;;13.95;100.00;101553.19;5092387;28;20177;-72
2023/05/09 02:57:23;;;;;;;31.52;17.88;;;;;;;13.93;100.00;101550.69;5090993;28;20495;-72
2023/05/09 02:59:48;;;;;;;28.60;15.40;;;;;;;13.89;100.00;101546.78;5092165;28;20032;-71
2023/05/09 03:02:14;;;;;;;27.80;15.10;;;;;;;13.91;100.00;101547.41;5092173;28;20066;-72
2023/05/09 03:04:40;;;;;;;28.27;15.50;;;;;;;13.86;100.00;101532.94;5091951;28;20072;-72
2023/05/09 03:07:05;;;;;;;27.83;14.65;;;;;;;13.82;100.00;101536.03;5092103;28;20044;-71
2023/05/09 03:09:31;;;;;;;29.98;18.08;;;;;;;13.81;100.00;101534.38;5092071;28;20035;-71
2023/05/09 03:11:56;;;;;;;30.77;18.00;;;;;;;13.76;100.00;101523.44;5092026;28;20030;-71
2023/05/09 03:14:21;;;;;;;31.98;16.85;;;;;;;13.75;100.00;101526.31;5090516;28;20036;-72
2023/05/09 03:16:47;;;;;;;31.02;16.00;;;;;;;13.70;100.00;101523.41;5091917;28;20078;-72
2023/05/09 03:19:12;;;;;;;27.60;16.58;;;;;;;13.68;100.00;101518.25;5091732;28;20617;-71
2023/05/09 03:21:38;;;;;;;32.25;16.75;;;;;;;13.67;100.00;101513.91;5091898;28;20118;-72
2023/05/09 03:24:06;;;;;;;27.65;15.07;;;;;;;13.66;100.00;101514.13;5091759;28;20077;-71
2023/05/09 03:26:31;;;;;;;27.77;15.63;;;;;;;13.66;100.00;101509.56;5091805;28;20383;-71
2023/05/09 03:28:57;;;;;;;34.28;17.98;;;;;;;13.63;100.00;101509.16;5091791;28;20024;-72
2023/05/09 03:31:23;;;;;;;28.45;18.13;;;;;;;13.63;100.00;101511.84;5091561;28;20075;-72
2023/05/09 03:33:48;;;;;;;32.78;17.67;;;;;;;13.63;100.00;101514.53;5092020;28;20035;-72
2023/05/09 03:36:13;;;;;;;30.38;17.42;;;;;;;13.63;100.00;101519.88;5091591;28;20043;-71
2023/05/09 03:38:39;;;;;;;28.38;16.33;;;;;;;13.59;100.00;101512.22;5091386;28;20060;-72
2023/05/09 03:41:04;;;;;;;27.58;15.25;;;;;;;13.58;100.00;101505.22;5091634;28;20061;-72
2023/05/09 03:43:30;;;;;;;30.90;18.27;;;;;;;13.63;100.00;101506.47;5091485;28;20143;-72
2023/05/09 03:45:55;;;;;;;30.90;16.52;;;;;;;13.58;100.00;101502.53;5091414;28;20382;-72
2023/05/09 03:48:20;;;;;;;27.98;15.45;;;;;;;13.63;100.00;101506.47;5089912;28;20137;-72
2023/05/09 03:50:46;;;;;;;27.65;15.75;;;;;;;13.61;100.00;101485.22;5091262;28;20035;-71
2023/05/09 03:53:11;;;;;;;28.85;15.00;;;;;;;13.62;100.00;101491.41;5088494;28;20028;-72
2023/05/09 03:55:36;;;;;;;27.30;16.42;;;;;;;13.61;100.00;101497.81;5089866;28;20035;-71
2023/05/09 03:58:02;;;;;;;29.27;16.95;;;;;;;13.62;100.00;101500.28;5089669;28;20119;-72
2023/05/09 04:00:27;;;;;;;27.60;14.95;;;;;;;13.58;100.00;101475.75;5091181;28;20036;-72
2023/05/09 04:02:53;;;;;;;30.52;15.13;;;;;;;13.58;100.00;101473.06;5091142;28;20028;-72
2023/05/09 04:05:19;;;;;;;29.17;16.17;;;;;;;13.56;100.00;101468.91;5072537;28;20056;-72
2023/05/09 04:07:44;;;;;;;30.33;15.27;;;;;;;13.59;100.00;101482.72;5090835;28;20362;-71
2023/05/09 04:10:10;;;;;;;30.02;16.70;;;;;;;13.48;100.00;101475.28;5089104;28;20042;-72
2023/05/09 04:12:36;;;;;;;28.40;14.60;;;;;;;13.57;100.00;101492.00;5090809;28;20028;-72
2023/05/09 04:15:01;;;;;;;27.38;16.55;;;;;;;13.58;100.00;101473.06;5090606;28;20082;-72
2023/05/09 04:17:26;;;;;;;28.90;16.55;;;;;;;13.52;100.00;101465.00;5090483;28;20038;-72
2023/05/09 04:19:52;;;;;;;30.00;15.45;;;;;;;13.53;100.00;101463.97;5090627;28;20382;-72
2023/05/09 04:22:17;;;;;;;29.13;15.38;;;;;;;13.54;100.00;101468.28;5090568;28;20036;-72
2023/05/09 04:24:42;;;;;;;25.35;14.60;;;;;;;13.57;100.00;101463.38;5090645;28;20031;-72
2023/05/09 04:27:08;;;;;;;26.17;13.80;;;;;;;13.53;100.00;101454.06;5090572;28;20040;-72
2023/05/09 04:29:34;;;;;;;25.55;13.35;;;;;;;13.50;100.00;101445.63;5090561;28;20040;-72
2023/05/09 04:32:00;;;;;;;29.40;13.98;;;;;;;13.53;100.00;101446.03;5090250;28;20491;-72
2023/05/09 04:34:26;;;;;;;27.15;14.75;;;;;;;13.55;100.00;101451.19;5090059;28;20031;-72
2023/05/09 04:36:52;;;;;;;25.50;12.93;;;;;;;13.56;100.00;101456.34;5090187;28;20035;-72
2023/05/09 04:39:18;;;;;;;23.85;12.38;;;;;;;13.53;100.00;101445.22;5088688;28;20036;-72
2023/05/09 04:41:46;;;;;;;23.35;12.52;;;;;;;13.59;100.00;101457.78;5090089;28;20114;-72
2023/05/09 04:44:15;;;;;;;28.63;12.07;;;;;;;13.62;100.00;101456.56;5088704;28;20502;-71
2023/05/09 04:46:40;;;;;;;27.55;13.35;;;;;;;13.64;100.00;101449.97;5090075;28;21014;-72
2023/05/09 04:49:06;;;;;;;25.67;13.40;;;;;;;13.72;100.00;101457.00;5089633;28;20035;-72
2023/05/09 04:51:32;;;;;;;24.15;12.13;;;;;;;13.75;100.00;101448.56;5089872;28;20127;-72
2023/05/09 04:53:57;;;;;;;23.08;12.68;;;;;;;13.80;100.00;101449.59;5090037;28;20051;-72
2023/05/09 04:56:23;;;;;;;24.90;12.80;;;;;;;13.86;100.00;101434.56;5088519;28;20036;-74
2023/05/09 04:58:48;;;;;;;23.55;13.38;;;;;;;13.93;100.00;101437.25;5088711;28;20035;-79
2023/05/09 05:01:14;;;;;;;23.30;12.13;;;;;;;13.94;100.00;101426.34;5089964;28;20032;-78
2023/05/09 05:03:40;;;;;;;23.20;10.80;;;;;;;14.03;100.00;101432.31;5089533;28;20483;-78
2023/05/09 05:06:05;;;;;;;25.08;12.07;;;;;;;14.09;100.00;101427.97;5089154;28;20056;-78
2023/05/09 05:08:31;;;;;;;21.88;11.88;;;;;;;14.17;100.00;101427.78;5088620;28;20535;-77
2023/05/09 05:10:56;;;;;;;19.27;10.25;;;;;;;14.22;100.00;101425.28;5088235;28;20119;-77
2023/05/09 05:13:22;;;;;;;22.77;12.65;;;;;;;14.29;100.00;101423.44;5089879;28;20034;-78
2023/05/09 05:15:47;;;;;;;19.67;11.02;;;;;;;14.33;100.00;101424.69;5088715;28;20028;-82
2023/05/09 05:18:12;;;;;;;20.42;10.93;;;;;;;14.34;100.00;101409.41;5079858;28;20060;-81
2023/05/09 05:20:41;;;;;;;23.30;12.00;;;;;;;14.44;100.00;101407.13;5081512;28;20459;-79
2023/05/09 05:23:07;;;;;;;20.23;9.40;;;;;;;14.47;100.00;101404.03;5081278;28;20036;-71
2023/05/09 05:25:33;;;;;;;21.55;11.52;;;;;;;14.46;100.00;101400.53;5081729;28;20024;-73
2023/05/09 05:27:59;;;;;;;23.05;10.80;;;;;;;14.46;100.00;101394.31;5082284;28;20085;-75
2023/05/09 05:30:24;;;;;;;21.95;12.32;;;;;;;14.42;100.00;101391.22;5079983;28;20028;-75
2023/05/09 05:32:50;;;;;;;22.88;11.32;;;;;;;14.41;100.00;101389.59;5083254;28;20026;-74
2023/05/09 05:35:15;;;;;;;21.08;11.32;;;;;;;14.40;100.00;101392.47;5082608;28;20429;-74
2023/05/09 05:37:41;;;;;;;20.65;10.93;;;;;;;14.39;100.00;101383.59;5082694;28;20040;-75
2023/05/09 05:40:07;;;;;;;21.98;12.05;;;;;;;14.42;100.00;101377.81;5082709;28;20078;-74
2023/05/09 05:42:33;;;;;;;23.13;11.63;;;;;;;14.44;100.00;101380.28;5080655;28;21018;-77
2023/05/09 05:45:04;;;;;;;19.15;10.52;;;;;;;14.55;100.00;101378.84;5082879;28;20036;-74
2023/05/09 05:47:32;;;;;;;19.60;9.88;;;;;;;14.62;100.00;101382.34;5081917;28;20122;-73
2023/05/09 05:49:58;;;;;;;21.13;10.20;;;;;;;14.66;100.00;101379.03;5082698;28;20034;-73
2023/05/09 05:52:23;;;;;;;19.67;10.55;;;;;;;14.78;100.00;101376.53;5082176;28;20016;-74
2023/05/09 05:54:48;;;;;;;22.42;12.45;;;;;;;14.87;100.00;101371.72;5081134;28;20079;-75
2023/05/09 05:57:14;;;;;;;20.85;10.25;;;;;;;14.95;100.00;101374.19;5082509;28;20125;-72
2023/05/09 05:59:39;;;;;;;20.35;12.05;;;;;;;14.99;100.00;101371.91;5082381;28;20490;-73
2023/05/09 06:02:04;;;;;;;21.60;10.40;;;;;;;15.00;100.00;101352.88;5081768;28;20036;-79
2023/05/09 06:04:30;;;;;;;19.95;11.30;;;;;;;15.06;100.00;101365.47;5082848;28;20028;-77
2023/05/09 06:06:56;;;;;;;20.90;11.88;;;;;;;15.13;100.00;101355.50;5079085;28;20548;-77
2023/05/09 06:09:21;;;;;;;20.10;11.40;;;;;;;15.22;100.00;101349.88;5080141;28;20035;-73
2023/05/09 06:11:46;;;;;;;19.00;11.27;;;;;;;15.31;100.00;101348.59;5081122;28;21389;-75
2023/05/09 06:14:12;;;;;;;21.30;11.30;;;;;;;15.41;100.00;101353.50;5079082;28;20129;-78
2023/05/09 06:16:37;;;;;;;19.77;12.18;;;;;;;15.51;100.00;101351.13;5083316;28;20031;-79
2023/05/09 06:19:03;;;;;;;22.00;11.27;;;;;;;15.74;100.00;101348.72;5082823;28;20209;-76
2023/05/09 06:21:29;;;;;;;23.92;11.07;;;;;;;15.85;100.00;101341.00;5086684;28;20040;-76
2023/05/09 06:23:54;;;;;;;20.95;10.88;;;;;;;15.97;100.00;101341.94;5086667;28;20065;-75
2023/05/09 06:26:21;;;;;;;19.33;11.18;;;;;;;16.05;100.00;101344.34;5084834;28;20032;-75
2023/05/09 06:28:46;;;;;;;24.23;12.68;;;;;;;16.04;100.00;101341.88;5086390;28;20023;-75
2023/05/09 06:31:11;;;;;;;22.23;12.13;;;;;;;16.08;100.00;101343.91;5086390;28;20028;-75
2023/05/09 06:33:37;;;;;;;19.88;11.10;;;;;;;16.12;100.00;101344.28;5086661;28;20061;-75
2023/05/09 06:36:02;;;;;;;21.42;10.98;;;;;;;16.09;100.00;101340.19;5086806;28;20024;-75
2023/05/09 06:38:28;;;;;;;22.95;12.60;;;;;;;16.00;100.00;101334.22;5086267;28;20028;-75
2023/05/09 06:40:53;;;;;;;21.58;10.75;;;;;;;15.95;100.00;101336.75;5084879;28;20039;-75
2023/05/09 06:43:19;;;;;;;20.40;11.73;;;;;;;15.92;100.00;101337.22;5086555;28;20036;-76
2023/05/09 06:45:44;;;;;;;22.92;11.32;;;;;;;15.82;100.00;101326.13;5086149;28;20024;-76
2023/05/09 06:48:09;;;;;;;19.30;11.40;;;;;;;15.73;100.00;101317.50;5084260;28;20035;-76
2023/05/09 06:50:35;;;;;;;21.45;11.45;;;;;;;15.73;100.00;101312.13;5086021;28;20031;-76
2023/05/09 06:53:00;;;;;;;20.83;11.98;;;;;;;15.72;100.00;101310.50;5085351;28;20113;-77
2023/05/09 06:55:25;;;;;;;20.52;11.05;;;;;;;15.69;100.00;101313.63;5086439;28;20047;-76
2023/05/09 06:57:51;;;;;;;19.20;10.68;;;;;;;15.68;100.00;101320.00;5085541;28;20032;-75
2023/05/09 07:00:16;;;;;;;20.88;12.43;;;;;;;15.66;100.00;101305.94;5085676;28;20118;-76
2023/05/09 07:02:42;;;;;;;19.13;9.52;;;;;;;15.71;100.00;101308.00;5086459;28;20097;-76
2023/05/09 07:05:08;;;;;;;20.88;11.88;;;;;;;15.78;100.00;101303.41;5084209;28;20059;-76
2023/05/09 07:07:35;;;;;;;23.45;12.25;;;;;;;15.83;100.00;101300.06;5085671;28;20059;-76
2023/05/09 07:10:02;;;;;;;20.73;11.63;;;;;;;15.78;100.00;101290.78;5084907;28;20034;-76
2023/05/09 07:12:30;;;;;;;21.88;11.02;;;;;;;15.86;100.00;101303.13;5085499;28;20856;-75
2023/05/09 07:14:55;;;;;;;23.83;12.60;;;;;;;15.95;100.00;101298.28;5084911;28;20024;-76
2023/05/09 07:17:21;;;;;;;22.60;12.15;;;;;;;15.99;100.00;101297.63;5085837;28;20035;-75
2023/05/09 07:19:47;;;;;;;21.02;11.48;;;;;;;16.06;100.00;101292.19;5083101;28;20078;-76
2023/05/09 07:22:12;;;;;;;24.63;11.60;;;;;;;16.12;100.00;101288.59;5084861;28;20052;-76
2023/05/09 07:24:37;;;;;;;22.05;13.27;;;;;;;16.16;100.00;101280.91;5084883;28;20020;-75
2023/05/09 07:27:03;;;;;;;23.00;13.07;;;;;;;16.16;100.00;101270.94;5082786;28;20072;-76
2023/05/09 07:29:28;;;;;;;18.67;11.63;;;;;;;16.29;100.00;101280.75;5083762;28;20020;-77
2023/05/09 07:31:54;;;;;;;22.90;13.40;;;;;;;16.35;100.00;101279.06;5085475;28;20057;-73
2023/05/09 07:34:19;;;;;;;22.27;10.70;;;;;;;16.35;100.00;101274.50;5084208;28;20081;-74
2023/05/09 07:36:45;;;;;;;20.35;11.63;;;;;;;16.31;100.00;101272.47;5084094;28;20026;-79
2023/05/09 07:39:10;;;;;;;17.10;9.60;;;;;;;16.29;100.00;101274.53;5084707;28;20036;-75
2023/05/09 07:41:35;;;;;;;17.60;9.52;;;;;;;16.24;100.00;101274.41;5084872;28;20028;-77
2023/05/09 07:44:01;;;;;;;17.13;9.65;;;;;;;16.16;100.00;101280.91;5082133;28;20060;-76
2023/05/09 07:46:26;;;;;;;17.80;8.80;;;;;;;16.15;100.00;101268.50;5084183;28;20032;-79
2023/05/09 07:48:51;;;;;;;16.23;8.32;;;;;;;16.18;100.00;101270.72;5084198;28;20054;-77
2023/05/09 07:51:17;;;;;;;16.67;10.52;;;;;;;16.16;100.00;101262.06;5085011;28;20505;-75
2023/05/09 07:53:43;;;;;;;17.08;9.15;;;;;;;16.22;100.00;101269.25;5084807;28;20360;-75
2023/05/09 07:56:08;;;;;;;16.05;9.18;;;;;;;16.16;100.00;101267.44;5084024;28;20462;-79
2023/05/09 07:58:33;;;;;;;15.35;8.38;;;;;;;16.16;100.00;101264.75;5082220;28;20036;-76
2023/05/09 08:00:59;;;;;;;17.98;8.93;;;;;;;16.07;100.00;101258.84;5081185;28;20035;-76
2023/05/09 08:03:24;;;;;;;16.70;8.45;;;;;;;16.08;100.00;101256.97;5083208;28;20043;-77
2023/05/09 08:05:56;;;;;;;16.30;9.40;;;;;;;16.09;100.00;101261.31;5080694;28;20056;-77
2023/05/09 08:08:22;;;;;;;16.00;8.57;;;;;;;16.05;100.00;101250.16;5083301;28;20116;-74
2023/05/09 08:10:47;;;;;;;17.50;8.45;;;;;;;16.01;100.00;101251.69;5083033;28;20056;-74
2023/05/09 08:13:13;;;;;;;13.30;8.70;;;;;;;16.05;100.00;101250.16;5082060;28;20756;-74
2023/05/09 08:15:38;;;;;;;14.27;8.48;;;;;;;16.09;100.00;101242.50;5080143;28;20597;-74
2023/05/09 08:18:03;;;;;;;14.75;7.15;;;;;;;16.17;100.00;101245.69;5082415;28;20388;-75
2023/05/09 08:20:30;;;;;;;12.32;7.10;;;;;;;16.23;100.00;101238.59;5082641;28;20039;-78
2023/05/09 08:22:56;;;;;;;12.63;7.82;;;;;;;16.25;100.00;101231.13;5083634;28;20024;-76
2023/05/09 08:25:21;;;;;;;13.23;8.73;;;;;;;16.33;100.00;101227.31;5082351;28;20035;-79
2023/05/09 08:27:46;;;;;;;16.08;7.78;;;;;;;16.39;100.00;101226.41;5080231;28;20033;-77
2023/05/09 08:30:12;;;;;;;13.85;8.05;;;;;;;16.47;100.00;101217.19;5082549;28;20024;-76
2023/05/09 08:32:38;;;;;;;14.80;7.25;;;;;;;16.50;100.00;101227.50;5090633;28;20437;-76
2023/05/09 08:35:03;;;;;;;11.57;5.93;;;;;;;16.45;100.00;101220.09;5089210;28;20479;-77
2023/05/09 08:37:29;;;;;;;9.88;6.25;;;;;;;16.40;100.00;101222.66;5090413;28;20422;-76
2023/05/09 08:39:54;;;;;;;11.30;5.65;;;;;;;16.31;100.00;101218.63;5088305;28;20028;-76
2023/05/09 08:42:21;;;;;;;9.85;5.68;;;;;;;16.36;100.00;101222.28;5090547;28;20031;-77
2023/05/09 08:44:47;;;;;;;10.13;6.15;;;;;;;16.48;100.00;101219.66;5090615;28;20028;-77
2023/05/09 08:47:13;;;;;;;8.93;5.68;;;;;;;16.55;100.00;101222.25;5098240;28;20028;-77
2023/05/09 08:49:40;;;;;;;10.00;6.40;;;;;;;16.52;100.00;101211.94;5090968;28;20031;-77
2023/05/09 08:52:06;;;;;;;9.65;6.05;;;;;;;16.44;100.00;101203.13;5089845;28;20027;-77
2023/05/09 08:54:32;;;;;;;10.60;7.10;;;;;;;16.33;100.00;101206.59;5090736;28;20035;-77
2023/05/09 08:56:59;;;;;;;13.02;6.40;;;;;;;16.28;100.00;101211.00;5090482;28;20028;-77
2023/05/09 08:59:25;;;;;;;8.48;6.15;;;;;;;16.20;100.00;101206.75;5090121;28;20429;-78
2023/05/09 09:01:52;;;;;;;12.70;7.40;;;;;;;16.23;100.00;101203.59;5090296;28;20110;-77
2023/05/09 09:04:18;;;;;;;12.65;6.47;;;;;;;16.25;100.00;101198.81;5090665;28;20075;-77
2023/05/09 09:06:44;;;;;;;12.27;8.23;;;;;;;16.23;100.00;101202.78;5090347;28;20131;-78
2023/05/09 09:09:11;;;;;;;13.35;7.80;;;;;;;16.15;100.00;101190.47;5090217;28;20016;-77
2023/05/09 09:11:39;;;;;;;11.90;7.03;;;;;;;16.11;100.00;101197.31;5090177;28;20034;-77
2023/05/09 09:14:27;;;;;;;11.77;6.57;;;;;;;16.07;100.00;101207.72;5089841;28;20040;-77
2023/05/09 09:16:56;;;;;;;13.23;6.88;;;;;;;15.98;100.00;101198.28;5089857;28;20024;-77
2023/05/09 09:19:28;;;;;;;12.68;6.85;;;;;;;16.06;100.00;101198.03;5089693;28;20041;-77
2023/05/09 09:21:58;;;;;;;9.27;6.28;;;;;;;16.04;100.00;101196.59;5089827;28;20031;-77
2023/05/09 09:24:23;;;;;;;9.02;5.70;;;;;;;15.92;100.00;101186.56;5088410;28;20051;-77
2023/05/09 09:26:50;;;;;;;15.55;7.43;;;;;;;15.84;100.00;101184.16;5089746;28;20028;-77
2023/05/09 09:29:17;;;;;;;9.48;5.25;;;;;;;15.89;100.00;101183.50;5089620;28;20459;-77
2023/05/09 09:31:45;;;;;;;10.25;5.53;;;;;;;16.01;100.00;101189.78;5089333;28;20077;-77
2023/05/09 09:34:12;;;;;;;17.13;5.90;;;;;;;16.04;100.00;101183.16;5089671;28;20502;-78
2023/05/09 09:36:37;;;;;;;8.90;5.72;;;;;;;16.03;100.00;101190.38;5089762;28;20411;-77
2023/05/09 09:39:03;;;;;;;8.82;5.38;;;;;;;15.96;100.00;101186.97;5088048;28;20032;-77
2023/05/09 09:41:37;;;;;;;10.57;6.25;;;;;;;15.88;100.00;101173.81;5089514;28;20032;-77
2023/05/09 09:44:07;;;;;;;8.38;3.97;;;;;;;15.91;100.00;101182.25;5089534;28;20028;-77
2023/05/09 09:46:42;;;;;;;5.45;3.72;;;;;;;15.90;100.00;101185.13;5089337;28;20104;-77
2023/05/09 09:49:12;;;;;;;7.07;4.55;;;;;;;15.84;100.00;101180.66;5089867;28;20031;-77
2023/05/09 09:51:37;;;;;;;7.18;4.15;;;;;;;15.74;100.00;101181.16;5092283;28;20031;-78
2023/05/09 09:54:06;;;;;;;6.07;3.97;;;;;;;15.77;100.00;101178.03;5093763;28;20027;-77
2023/05/09 09:56:46;;;;;;;6.35;4.00;;;;;;;15.77;100.00;101175.34;5093724;28;20024;-77
2023/05/09 09:59:16;;;;;;;10.60;4.50;;;;;;;15.68;100.00;101174.78;5093805;28;20027;-77
2023/05/09 10:02:00;;;;;;;7.70;4.28;;;;;;;15.69;100.00;101170.25;5093764;28;20024;-77
2023/05/09 10:04:29;;;;;;;6.65;4.15;;;;;;;15.57;100.00;101167.47;5093267;28;20042;-77
2023/05/09 10:06:57;;;;;;;6.65;4.07;;;;;;;15.48;100.00;101166.94;5093738;28;20066;-77
2023/05/09 10:09:24;;;;;;;7.78;3.53;;;;;;;15.44;100.00;101171.09;5093621;28;20073;-79
2023/05/09 10:11:51;;;;;;;4.68;3.20;;;;;;;15.38;100.00;101168.47;5093657;28;20039;-79
2023/05/09 10:14:24;;;;;;;5.05;3.15;;;;;;;15.32;100.00;101160.22;5090702;28;20127;-72
2023/05/09 10:16:53;;;;;;;6.78;3.63;;;;;;;15.26;100.00;101147.69;5084360;28;20035;-79
2023/05/09 10:19:20;;;;;;;6.70;3.03;;;;;;;15.27;100.00;101151.19;5086677;28;20036;-73
2023/05/09 10:21:52;;;;;;;6.40;3.42;;;;;;;15.30;100.00;101148.91;5085977;28;20360;-77
2023/05/09 10:24:32;;;;;;;3.42;2.60;;;;;;;15.31;100.00;101157.78;5087050;28;20152;-76
2023/05/09 10:27:03;;;;;;;5.80;3.15;;;;;;;15.28;100.00;101158.22;5086247;28;20035;-72
2023/05/09 10:29:34;;;;;;;5.30;3.05;;;;;;;15.25;100.00;101150.63;5086963;28;20079;-73
2023/05/09 10:32:05;;;;;;;11.30;5.07;;;;;;;15.25;100.00;101142.53;5086064;28;20129;-71
2023/05/09 10:34:33;;;;;;;7.80;4.18;;;;;;;15.24;100.00;101141.69;5086474;28;20360;-72
2023/05/09 10:36:59;;;;;;;9.35;4.32;;;;;;;15.20;100.00;101137.81;5086347;28;20406;-72
2023/05/09 10:39:26;;;;;;;5.68;3.42;;;;;;;15.07;100.00;101133.38;5085557;28;20032;-71
2023/05/09 10:41:53;;;;;;;11.75;4.32;;;;;;;15.02;100.00;101145.84;5084093;28;20031;-71
2023/05/09 10:44:20;;;;;;;7.22;3.75;;;;;;;15.04;100.00;101135.69;5091436;28;20024;-71
2023/05/09 10:46:46;;;;;;;7.43;4.53;;;;;;;14.95;100.00;101134.31;5092593;28;20024;-75
2023/05/09 10:49:12;;;;;;;10.07;4.45;;;;;;;14.94;100.00;101119.25;5092839;28;20027;-75
2023/05/09 10:51:37;;;;;;;7.20;5.07;;;;;;;14.94;100.00;101119.25;5092602;28;20059;-75
2023/05/09 10:54:12;;;;;;;7.50;4.00;;;;;;;15.04;100.00;101123.09;5087699;28;20081;-77
2023/05/09 10:56:38;;;;;;;7.22;4.50;;;;;;;15.01;100.00;101118.16;5084357;28;20501;-77
2023/05/09 10:59:04;;;;;;;5.63;3.67;;;;;;;14.90;100.00;101108.91;5085155;28;20115;-75
2023/05/09 11:01:33;;;;;;;7.20;3.50;;;;;;;14.78;100.00;101112.56;5084661;28;20107;-75
2023/05/09 11:04:00;;;;;;;7.05;3.58;;;;;;;14.69;100.00;101109.28;5083103;28;20417;-75